Time;durP1;ratioP1;P1;durP2;ratioP2;P2;SDS_P1;SDS_P2;PMS_P1;PMS_P2;Temp;Humidity;BMP_temperature;BMP_pressure;BME280_temperature;BME280_humidity;BME280_pressure;Samples;Min_cycle;Max_cycle;Signal;HPM_P1;HPM_P2
2022/02/15 00:01:54;;;;;;;9.47;2.80;;;;;;;5.39;100.00;99659.59;7398037;19;20391;-48
2022/02/15 00:04:26;;;;;;;7.20;2.80;;;;;;;5.48;100.00;99654.03;7389320;19;20767;-49
2022/02/15 00:06:55;;;;;;;8.40;3.57;;;;;;;5.43;100.00;99658.06;7394024;19;20383;-49
2022/02/15 00:09:25;;;;;;;7.20;1.30;;;;;;;5.58;100.00;99667.25;7389638;19;20402;-53
2022/02/15 00:11:55;;;;;;;14.10;2.70;;;;;;;5.65;100.00;99657.31;7394030;19;20741;-48
2022/02/15 00:14:24;;;;;;;11.37;2.90;;;;;;;5.62;100.00;99656.31;7389328;19;20413;-49
2022/02/15 00:16:54;;;;;;;5.73;3.00;;;;;;;5.64;100.00;99664.97;7391798;19;20388;-48
2022/02/15 00:19:26;;;;;;;6.17;3.10;;;;;;;5.67;100.00;99663.41;7390053;19;20546;-51
2022/02/15 00:21:55;;;;;;;4.87;1.60;;;;;;;5.69;100.00;99666.00;7393558;19;20811;-49
2022/02/15 00:24:25;;;;;;;5.13;2.43;;;;;;;5.73;100.00;99673.03;7388784;19;20406;-48
2022/02/15 00:26:54;;;;;;;7.40;2.50;;;;;;;5.76;100.00;99670.63;7393234;19;20454;-49
2022/02/15 00:29:24;;;;;;;8.73;3.10;;;;;;;5.76;100.00;99668.06;7389958;19;20918;-51
2022/02/15 00:31:54;;;;;;;8.33;3.00;;;;;;;5.76;100.00;99670.63;7392802;19;20400;-51
2022/02/15 00:34:26;;;;;;;12.50;3.87;;;;;;;5.76;100.00;99674.84;7387583;19;20403;-50
2022/02/15 00:36:55;;;;;;;4.67;1.90;;;;;;;5.78;100.00;99675.78;7391340;19;20386;-53
2022/02/15 00:39:25;;;;;;;6.27;2.13;;;;;;;5.88;100.00;99674.50;7391009;19;20404;-49
2022/02/15 00:41:54;;;;;;;5.60;2.60;;;;;;;5.92;100.00;99674.72;7393417;19;20399;-51
2022/02/15 00:44:26;;;;;;;6.67;2.50;;;;;;;6.02;100.00;99681.16;7388399;19;20407;-49
2022/02/15 00:46:56;;;;;;;7.07;2.80;;;;;;;6.05;100.00;99681.25;7393115;19;20925;-52
2022/02/15 00:49:28;;;;;;;5.30;2.00;;;;;;;6.14;100.00;99680.78;7390398;19;20407;-50
2022/02/15 00:51:58;;;;;;;8.27;2.90;;;;;;;6.19;100.00;99683.53;7392769;19;20411;-52
2022/02/15 00:54:30;;;;;;;6.70;3.20;;;;;;;6.21;100.00;99684.50;7391365;19;20984;-49
2022/02/15 00:56:59;;;;;;;6.33;2.23;;;;;;;6.21;100.00;99693.03;7391086;19;20771;-52
2022/02/15 00:59:29;;;;;;;9.60;2.97;;;;;;;6.24;100.00;99684.59;7388927;19;20430;-49
2022/02/15 01:01:59;;;;;;;6.27;2.70;;;;;;;6.29;100.00;99695.94;7391975;19;20464;-50
2022/02/15 01:04:31;;;;;;;5.10;3.07;;;;;;;6.33;100.00;99679.88;7387236;19;20415;-53
2022/02/15 01:07:00;;;;;;;6.60;2.37;;;;;;;6.33;100.00;99685.00;7392646;19;20726;-48
2022/02/15 01:09:30;;;;;;;4.63;2.50;;;;;;;6.31;100.00;99686.59;7388648;19;20415;-48
2022/02/15 01:11:59;;;;;;;7.50;3.27;;;;;;;6.32;100.00;99684.94;7392062;19;20735;-51
2022/02/15 01:14:29;;;;;;;2.47;1.30;;;;;;;6.38;100.00;99697.13;7387790;19;20403;-55
2022/02/15 01:16:59;;;;;;;6.50;3.10;;;;;;;6.39;100.00;99686.03;7390426;19;20386;-53
2022/02/15 01:19:31;;;;;;;5.47;2.63;;;;;;;6.40;100.00;99690.38;7387659;19;20829;-51
2022/02/15 01:22:01;;;;;;;4.83;2.70;;;;;;;6.40;100.00;99692.94;7399296;19;20386;-54
2022/02/15 01:24:30;;;;;;;8.37;3.23;;;;;;;6.42;100.00;99689.59;7394512;19;20411;-49
2022/02/15 01:27:00;;;;;;;7.03;3.27;;;;;;;6.43;100.00;99693.06;7399393;19;20393;-51
2022/02/15 01:29:29;;;;;;;8.77;3.30;;;;;;;6.43;100.00;99696.50;7395560;19;20398;-50
2022/02/15 01:31:59;;;;;;;9.67;3.70;;;;;;;6.44;100.00;99697.38;7398986;19;20479;-50
2022/02/15 01:34:31;;;;;;;9.07;3.37;;;;;;;6.42;100.00;99689.59;7393851;19;20403;-49
2022/02/15 01:37:00;;;;;;;20.03;3.93;;;;;;;6.43;100.00;99695.63;7399442;19;20396;-50
2022/02/15 01:39:30;;;;;;;6.20;2.10;;;;;;;6.43;100.00;99685.38;7395384;19;20397;-48
2022/02/15 01:42:01;;;;;;;12.83;3.40;;;;;;;6.41;100.00;99692.13;7398607;19;20405;-50
2022/02/15 01:44:30;;;;;;;10.70;4.10;;;;;;;6.40;100.00;99686.13;7393757;19;20489;-51
2022/02/15 01:47:00;;;;;;;6.17;3.00;;;;;;;6.41;100.00;99697.25;7398651;19;20928;-48
2022/02/15 01:49:32;;;;;;;12.43;2.90;;;;;;;6.40;100.00;99692.94;7394910;19;20409;-50
2022/02/15 01:52:02;;;;;;;10.90;3.33;;;;;;;6.39;100.00;99688.59;7398702;19;20398;-48
2022/02/15 01:54:31;;;;;;;8.63;3.20;;;;;;;6.35;100.00;99693.63;7393352;19;20416;-51
2022/02/15 01:57:01;;;;;;;10.10;4.03;;;;;;;6.36;100.00;99699.59;7396801;19;20387;-47
2022/02/15 01:59:30;;;;;;;7.90;4.50;;;;;;;6.34;100.00;99691.88;7395574;19;20404;-48
2022/02/15 02:02:00;;;;;;;6.93;4.20;;;;;;;6.33;100.00;99691.81;7398052;19;20381;-50
2022/02/15 02:07:14;;;;;;;8.83;4.33;;;;;;;6.31;100.00;99691.72;7398320;19;20914;-48
2022/02/15 02:09:43;;;;;;;6.77;3.23;;;;;;;6.30;100.00;99695.09;7397148;19;20397;-48
2022/02/15 02:12:13;;;;;;;7.17;3.40;;;;;;;6.24;100.00;99694.84;7397957;19;20391;-47
2022/02/15 02:14:42;;;;;;;13.10;4.77;;;;;;;6.17;100.00;99695.41;7392588;19;20427;-49
2022/02/15 02:17:12;;;;;;;6.50;3.40;;;;;;;6.02;100.00;99691.38;7396002;19;21027;-50
2022/02/15 02:19:44;;;;;;;11.47;4.80;;;;;;;5.94;100.00;99687.56;7392179;19;20409;-51
2022/02/15 02:22:16;;;;;;;6.87;2.90;;;;;;;5.87;100.00;99690.66;7397478;19;20391;-50
2022/02/15 02:24:45;;;;;;;8.30;4.83;;;;;;;5.75;100.00;99673.97;7392418;19;20419;-51
2022/02/15 02:27:16;;;;;;;8.50;3.70;;;;;;;5.58;100.00;99677.47;7397593;19;20470;-49
2022/02/15 02:29:46;;;;;;;13.10;7.00;;;;;;;5.51;100.00;99666.09;7393655;19;20416;-50
2022/02/15 02:32:16;;;;;;;10.93;4.30;;;;;;;5.39;100.00;99648.50;7397210;19;20383;-53
2022/02/15 02:34:45;;;;;;;8.67;5.20;;;;;;;5.34;100.00;99647.44;7392348;19;20784;-50
2022/02/15 02:37:17;;;;;;;9.77;5.53;;;;;;;5.33;100.00;99638.00;7395510;19;20376;-49
2022/02/15 02:39:48;;;;;;;10.07;5.50;;;;;;;5.24;100.00;99634.19;7392428;19;20417;-47
2022/02/15 02:42:19;;;;;;;13.67;5.63;;;;;;;5.22;100.00;99630.72;7391947;19;20892;-49
2022/02/15 02:44:51;;;;;;;8.20;5.00;;;;;;;5.21;100.00;99628.06;7392600;19;20747;-48
2022/02/15 02:47:20;;;;;;;7.90;4.10;;;;;;;5.19;100.00;99609.25;7396856;19;20402;-52
2022/02/15 02:49:50;;;;;;;7.23;3.50;;;;;;;5.20;100.00;99611.88;7394983;19;20406;-47
2022/02/15 02:52:23;;;;;;;5.40;3.67;;;;;;;5.22;100.00;99617.03;7396913;19;20383;-48
2022/02/15 02:54:53;;;;;;;7.93;3.70;;;;;;;5.22;100.00;99619.59;7390068;19;20400;-49
2022/02/15 02:57:23;;;;;;;6.17;3.40;;;;;;;5.21;100.00;99608.50;7395500;19;20403;-49
2022/02/15 02:59:52;;;;;;;7.40;3.83;;;;;;;5.19;100.00;99622.91;7390748;19;20407;-47
2022/02/15 03:02:22;;;;;;;3.07;2.07;;;;;;;5.17;100.00;99627.06;7399241;19;20390;-47
2022/02/15 03:04:53;;;;;;;6.27;3.87;;;;;;;5.19;100.00;99645.03;7391218;19;20398;-49
2022/02/15 03:07:25;;;;;;;7.83;3.77;;;;;;;5.18;100.00;99644.16;7396223;19;20826;-46
2022/02/15 03:09:54;;;;;;;7.13;2.93;;;;;;;5.20;100.00;99646.78;7392369;19;20434;-47
2022/02/15 03:12:24;;;;;;;10.43;3.83;;;;;;;5.20;100.00;99657.91;7394776;19;20736;-51
2022/02/15 03:14:53;;;;;;;7.53;3.63;;;;;;;5.23;100.00;99655.47;7391184;19;20406;-48
2022/02/15 03:17:23;;;;;;;10.23;4.50;;;;;;;5.23;100.00;99662.28;7394774;19;20775;-46
2022/02/15 03:19:54;;;;;;;8.50;4.17;;;;;;;5.24;100.00;99666.59;7391969;19;20395;-49
2022/02/15 03:22:27;;;;;;;4.60;2.43;;;;;;;5.25;100.00;99665.78;7395524;19;20391;-49
2022/02/15 03:24:56;;;;;;;7.47;4.40;;;;;;;5.25;100.00;99670.91;7390463;19;20407;-47
2022/02/15 03:27:26;;;;;;;6.87;2.70;;;;;;;5.24;100.00;99667.44;7397477;19;20790;-47
2022/02/15 03:29:55;;;;;;;5.90;3.40;;;;;;;5.25;100.00;99666.69;7391888;19;20419;-47
2022/02/15 03:32:25;;;;;;;7.13;4.60;;;;;;;5.27;100.00;99670.16;7395250;19;20387;-47
2022/02/15 03:34:54;;;;;;;4.67;2.67;;;;;;;5.25;100.00;99679.47;7389594;19;20415;-50
2022/02/15 03:37:23;;;;;;;6.23;3.20;;;;;;;5.24;100.00;99682.78;7393997;19;20732;-49
2022/02/15 03:39:55;;;;;;;6.10;2.97;;;;;;;5.22;100.00;99681.84;7391127;19;20425;-51
2022/02/15 03:45:08;;;;;;;6.80;3.40;;;;;;;5.21;100.00;99690.34;7390448;19;20411;-50
2022/02/15 03:47:38;;;;;;;11.40;3.30;;;;;;;5.24;100.00;99692.16;7394503;19;20758;-47
2022/02/15 03:50:09;;;;;;;4.47;2.40;;;;;;;5.20;100.00;99691.16;7393932;19;20473;-49
2022/02/15 03:52:38;;;;;;;3.73;2.20;;;;;;;5.19;100.00;99691.97;7394544;19;20390;-51
2022/02/15 03:55:11;;;;;;;5.20;2.53;;;;;;;5.18;100.00;99690.19;7390041;19;20432;-47
2022/02/15 03:57:40;;;;;;;6.43;1.90;;;;;;;5.19;100.00;99697.09;7393366;19;20393;-47
2022/02/15 04:00:11;;;;;;;3.63;2.13;;;;;;;5.17;100.00;99695.25;7390873;19;20382;-48
2022/02/15 04:02:41;;;;;;;5.23;2.10;;;;;;;5.15;100.00;99697.72;7394297;19;20764;-48
2022/02/15 04:05:11;;;;;;;5.00;2.80;;;;;;;5.14;100.00;99694.28;7389403;19;20414;-52
2022/02/15 04:07:40;;;;;;;4.60;2.40;;;;;;;5.09;100.00;99707.66;7394372;19;20391;-50
2022/02/15 04:10:12;;;;;;;5.13;3.03;;;;;;;5.10;100.00;99706.88;7389845;19;20426;-48
2022/02/15 04:12:44;;;;;;;6.57;2.20;;;;;;;5.05;100.00;99703.22;7393883;19;20391;-48
2022/02/15 04:15:15;;;;;;;3.83;2.23;;;;;;;4.97;100.00;99703.72;7388905;19;20413;-47
2022/02/15 04:17:45;;;;;;;4.80;2.70;;;;;;;4.99;100.00;99701.25;7395317;19;20739;-50
2022/02/15 04:20:16;;;;;;;10.83;2.60;;;;;;;4.93;100.00;99696.69;7390276;19;20761;-47
2022/02/15 04:22:46;;;;;;;5.30;2.87;;;;;;;4.94;100.00;99693.38;7393737;19;20388;-47
2022/02/15 04:25:18;;;;;;;8.23;2.87;;;;;;;4.91;100.00;99695.75;7389127;19;20425;-48
2022/02/15 04:27:47;;;;;;;3.17;1.80;;;;;;;4.89;100.00;99686.28;7393214;19;20398;-50
2022/02/15 04:30:17;;;;;;;6.33;3.20;;;;;;;4.90;100.00;99690.56;7390471;19;20486;-49
2022/02/15 04:32:47;;;;;;;4.63;2.00;;;;;;;4.83;100.00;99697.09;7397779;19;20450;-49
2022/02/15 04:35:16;;;;;;;3.70;1.90;;;;;;;4.83;100.00;99686.88;7388409;19;20413;-46
2022/02/15 04:37:46;;;;;;;3.13;1.93;;;;;;;4.78;100.00;99689.22;7391910;19;20382;-50
2022/02/15 04:40:18;;;;;;;5.50;2.30;;;;;;;4.73;100.00;99691.50;7389496;19;20421;-47
2022/02/15 04:42:49;;;;;;;4.70;2.63;;;;;;;4.67;100.00;99685.25;7393390;19;20390;-46
2022/02/15 04:45:19;;;;;;;6.17;2.70;;;;;;;4.64;100.00;99685.97;7388422;19;20429;-49
2022/02/15 04:47:48;;;;;;;4.13;2.57;;;;;;;4.58;100.00;99680.56;7392788;19;20386;-48
2022/02/15 04:50:18;;;;;;;4.50;2.20;;;;;;;4.54;100.00;99688.88;7389128;19;21051;-46
2022/02/15 04:52:47;;;;;;;4.27;1.47;;;;;;;4.50;100.00;99671.66;7392792;19;20379;-51
2022/02/15 04:55:19;;;;;;;6.10;2.10;;;;;;;4.46;100.00;99675.72;7390667;19;20469;-52
2022/02/15 04:57:49;;;;;;;5.03;2.73;;;;;;;4.45;100.00;99659.53;7402785;19;20405;-50
2022/02/15 05:00:19;;;;;;;7.00;2.60;;;;;;;4.46;100.00;99651.06;7397104;19;20735;-52
2022/02/15 05:02:48;;;;;;;4.83;2.50;;;;;;;4.40;100.00;99635.44;7400061;19;20392;-52
2022/02/15 05:05:18;;;;;;;8.03;3.33;;;;;;;4.39;100.00;99618.38;7397418;19;20422;-48
2022/02/15 05:07:47;;;;;;;4.70;2.63;;;;;;;4.35;100.00;99600.28;7399833;19;20463;-53
2022/02/15 05:10:19;;;;;;;6.20;3.17;;;;;;;4.33;100.00;99600.19;7396276;19;20425;-50
2022/02/15 05:12:49;;;;;;;13.93;3.33;;;;;;;4.37;100.00;99573.13;7399788;19;20386;-46
2022/02/15 05:15:18;;;;;;;6.70;2.40;;;;;;;4.33;100.00;99574.66;7394775;19;20444;-50
2022/02/15 05:17:48;;;;;;;7.97;3.17;;;;;;;4.34;100.00;99561.06;7398100;19;20377;-49
2022/02/15 05:20:18;;;;;;;9.13;3.77;;;;;;;4.34;100.00;99563.63;7394850;19;20407;-51
2022/02/15 05:22:49;;;;;;;11.60;3.80;;;;;;;4.35;100.00;99551.75;7399461;19;20390;-47
2022/02/15 05:25:21;;;;;;;7.13;3.00;;;;;;;4.35;100.00;99539.84;7394792;19;20520;-52
2022/02/15 05:27:51;;;;;;;5.00;2.30;;;;;;;4.33;100.00;99526.97;7398769;19;20943;-49
2022/02/15 05:30:21;;;;;;;12.97;4.10;;;;;;;4.36;100.00;99513.50;7394086;19;20432;-50
2022/02/15 05:32:51;;;;;;;16.20;4.07;;;;;;;4.38;100.00;99514.47;7399379;19;20377;-49
2022/02/15 05:35:21;;;;;;;7.83;4.23;;;;;;;4.43;100.00;99505.34;7392563;19;20918;-50
2022/02/15 05:37:50;;;;;;;4.43;1.77;;;;;;;4.40;100.00;99512.84;7398034;19;20397;-50
2022/02/15 05:40:23;;;;;;;16.83;3.60;;;;;;;4.47;100.00;99503.78;7395529;19;20431;-51
2022/02/15 05:42:53;;;;;;;7.10;2.97;;;;;;;4.50;100.00;99514.13;7399152;19;20725;-53
2022/02/15 05:45:22;;;;;;;8.93;4.10;;;;;;;4.57;100.00;99517.88;7394971;19;20424;-50
2022/02/15 05:47:52;;;;;;;8.23;3.50;;;;;;;4.59;100.00;99521.34;7398342;19;20402;-51
2022/02/15 05:53:04;;;;;;;9.07;3.70;;;;;;;4.67;100.00;99522.56;7398730;19;20388;-50
2022/02/15 05:55:36;;;;;;;8.87;3.90;;;;;;;4.70;100.00;99525.28;7391113;19;20435;-54
2022/02/15 05:58:05;;;;;;;10.70;4.10;;;;;;;4.76;100.00;99528.94;7397884;19;20389;-53
2022/02/15 06:00:35;;;;;;;5.17;2.60;;;;;;;4.73;100.00;99534.78;7394977;19;20403;-48
2022/02/15 06:04:09;;;;;;;7.30;2.40;;;;;;;4.66;100.00;99541.28;7398401;19;20388;-48
2022/02/15 06:05:55;;;;;;;5.40;2.33;;;;;;;4.61;100.00;99532.50;7392932;19;20415;-52
2022/02/15 06:08:24;;;;;;;5.03;2.90;;;;;;;4.68;100.00;99544.75;7397939;19;20400;-52
2022/02/15 06:10:56;;;;;;;8.10;3.73;;;;;;;4.62;100.00;99564.94;7394486;19;20411;-49
2022/02/15 06:13:26;;;;;;;21.83;7.53;;;;;;;4.70;100.00;99565.28;7397022;19;20387;-50
2022/02/15 06:15:55;;;;;;;13.47;4.70;;;;;;;4.72;100.00;99566.25;7392969;19;20421;-49
2022/02/15 06:18:25;;;;;;;12.00;3.93;;;;;;;4.66;100.00;99578.75;7396884;19;20454;-47
2022/02/15 06:20:54;;;;;;;7.87;4.00;;;;;;;4.61;100.00;99572.53;7395399;19;20795;-54
2022/02/15 06:23:24;;;;;;;12.57;4.47;;;;;;;4.63;100.00;99582.03;7396673;19;20395;-50
2022/02/15 06:25:56;;;;;;;5.70;2.83;;;;;;;4.57;100.00;99584.28;7393310;19;20419;-51
2022/02/15 06:28:25;;;;;;;13.93;4.00;;;;;;;4.62;100.00;99589.59;7397026;19;20395;-52
2022/02/15 06:30:56;;;;;;;7.57;3.80;;;;;;;4.61;100.00;99596.38;7394176;19;20406;-52
2022/02/15 06:33:26;;;;;;;7.63;3.43;;;;;;;4.58;100.00;99607.34;7399631;19;20398;-51
2022/02/15 06:35:55;;;;;;;11.77;6.03;;;;;;;4.63;100.00;99612.69;7392164;19;20423;-50
2022/02/15 06:38:25;;;;;;;5.00;2.70;;;;;;;4.59;100.00;99624.44;7396816;19;21359;-52
2022/02/15 06:40:57;;;;;;;6.13;3.40;;;;;;;4.57;100.00;99626.03;7393552;19;20743;-48
2022/02/15 06:43:27;;;;;;;13.10;5.00;;;;;;;4.59;100.00;99626.09;7395949;19;20394;-49
2022/02/15 06:45:56;;;;;;;7.30;3.00;;;;;;;4.53;100.00;99625.81;7391594;19;20418;-50
2022/02/15 06:48:26;;;;;;;7.50;3.40;;;;;;;4.50;100.00;99626.53;7396534;19;20395;-52
2022/02/15 06:50:56;;;;;;;8.67;4.17;;;;;;;4.46;100.00;99633.19;7393146;19;20830;-54
2022/02/15 06:53:26;;;;;;;14.37;4.67;;;;;;;4.53;100.00;99636.03;7395544;19;20374;-52
2022/02/15 06:56:11;;;;;;;6.20;2.87;;;;;;;4.48;100.00;99632.38;7392620;19;20424;-51
2022/02/15 06:58:41;;;;;;;7.37;3.80;;;;;;;4.49;100.00;99644.34;7396017;19;20390;-50
2022/02/15 07:01:11;;;;;;;10.70;4.87;;;;;;;4.49;100.00;99631.56;7392748;19;20418;-51
2022/02/15 07:03:40;;;;;;;6.80;3.03;;;;;;;4.48;100.00;99647.69;7395580;19;20397;-55
2022/02/15 07:06:11;;;;;;;13.00;5.70;;;;;;;4.51;100.00;99638.50;7389379;19;20417;-52
2022/02/15 07:08:40;;;;;;;8.97;3.23;;;;;;;4.49;100.00;99660.56;7397126;19;20389;-54
2022/02/15 07:11:13;;;;;;;12.67;5.17;;;;;;;4.49;100.00;99663.09;7392035;19;20415;-55
2022/02/15 07:13:43;;;;;;;9.87;5.00;;;;;;;4.49;100.00;99667.34;7395016;19;20418;-52
2022/02/15 07:16:12;;;;;;;12.00;5.70;;;;;;;4.50;100.00;99671.66;7391311;19;20490;-51
2022/02/15 07:18:43;;;;;;;10.47;4.50;;;;;;;4.50;100.00;99669.97;7391805;19;20407;-52
2022/02/15 07:21:12;;;;;;;7.97;3.17;;;;;;;4.52;100.00;99675.16;7394885;19;20453;-51
2022/02/15 07:23:42;;;;;;;6.77;3.40;;;;;;;4.54;100.00;99666.78;7397567;19;20750;-50
2022/02/15 07:26:14;;;;;;;7.17;3.60;;;;;;;4.58;100.00;99686.53;7389714;19;20405;-51
2022/02/15 07:28:43;;;;;;;15.50;4.60;;;;;;;4.58;100.00;99691.66;7394771;19;20402;-49
2022/02/15 07:31:14;;;;;;;7.43;3.90;;;;;;;4.62;100.00;99692.69;7394966;19;20442;-52
2022/02/15 07:33:43;;;;;;;10.63;4.13;;;;;;;4.64;100.00;99710.63;7393895;19;20390;-53
2022/02/15 07:36:13;;;;;;;14.60;6.50;;;;;;;4.65;100.00;99708.16;7393308;19;20446;-48
2022/02/15 07:38:43;;;;;;;16.43;7.30;;;;;;;4.69;100.00;99704.97;7394226;19;20474;-52
2022/02/15 07:41:15;;;;;;;9.10;4.77;;;;;;;4.71;100.00;99716.13;7391415;19;20404;-51
2022/02/15 07:43:45;;;;;;;11.63;5.30;;;;;;;4.65;100.00;99728.59;7393512;19;20469;-48
2022/02/15 07:46:15;;;;;;;12.70;6.33;;;;;;;4.70;100.00;99721.16;7390570;19;20432;-50
2022/02/15 07:48:45;;;;;;;10.80;4.60;;;;;;;4.67;100.00;99737.22;7394386;19;20386;-50
2022/02/15 07:51:14;;;;;;;10.80;5.93;;;;;;;4.74;100.00;99733.31;7392575;19;20827;-54
2022/02/15 07:53:44;;;;;;;11.33;4.10;;;;;;;4.72;100.00;99738.31;7396650;19;20410;-57
2022/02/15 07:56:16;;;;;;;14.30;5.77;;;;;;;4.78;100.00;99737.75;7390017;19;20410;-52
2022/02/15 07:58:46;;;;;;;14.33;4.37;;;;;;;4.80;100.00;99748.03;7373134;19;20404;-54
2022/02/15 08:01:16;;;;;;;6.53;3.23;;;;;;;4.79;100.00;99751.41;7392365;19;20968;-52
2022/02/15 08:03:45;;;;;;;8.60;4.07;;;;;;;4.83;100.00;99753.31;7389238;19;20744;-53
2022/02/15 08:06:15;;;;;;;9.47;4.07;;;;;;;4.83;100.00;99748.22;7393634;19;20390;-52
2022/02/15 08:08:44;;;;;;;13.90;4.70;;;;;;;4.79;100.00;99759.06;7389453;19;20437;-52
2022/02/15 08:11:16;;;;;;;5.67;3.27;;;;;;;4.76;100.00;99757.25;7391741;19;20404;-49
2022/02/15 08:13:49;;;;;;;6.70;3.10;;;;;;;4.73;100.00;99760.53;7384442;19;20928;-51
2022/02/15 08:16:18;;;;;;;5.27;3.37;;;;;;;4.75;100.00;99764.81;7393226;19;20401;-51
2022/02/15 08:18:48;;;;;;;6.80;2.80;;;;;;;4.65;100.00;99774.59;7389813;19;20434;-49
2022/02/15 08:21:18;;;;;;;12.03;5.17;;;;;;;4.60;100.00;99755.59;7390107;19;20975;-50
2022/02/15 08:24:07;;;;;;;15.93;5.83;;;;;;;4.47;100.00;99769.47;7384086;19;20426;-48
2022/02/15 08:26:40;;;;;;;11.03;3.80;;;;;;;4.37;100.00;99759.56;7393948;19;20399;-53
2022/02/15 08:29:11;;;;;;;12.30;5.60;;;;;;;4.35;100.00;99756.94;7392215;19;20448;-49
2022/02/15 08:31:40;;;;;;;10.90;5.63;;;;;;;4.30;100.00;99751.59;7397355;19;20625;-50
2022/02/15 08:34:10;;;;;;;9.90;3.83;;;;;;;4.30;100.00;99740.47;7390640;19;20403;-47
2022/02/15 08:36:39;;;;;;;17.07;7.00;;;;;;;4.29;100.00;99714.09;7392231;19;20406;-48
2022/02/15 08:39:10;;;;;;;15.30;7.27;;;;;;;4.26;100.00;99706.25;7390065;19;20438;-50
2022/02/15 08:41:42;;;;;;;18.70;7.40;;;;;;;4.30;100.00;99687.75;7392765;19;20464;-50
2022/02/15 08:44:12;;;;;;;13.77;6.30;;;;;;;4.32;100.00;99686.13;7390620;19;20444;-54
2022/02/15 08:46:42;;;;;;;10.17;4.97;;;;;;;4.27;100.00;99674.84;7392510;19;20420;-50
2022/02/15 08:49:11;;;;;;;9.20;4.13;;;;;;;4.21;100.00;99671.97;7391853;19;20422;-48
2022/02/15 08:51:41;;;;;;;10.07;5.10;;;;;;;4.25;100.00;99673.00;7392471;19;20478;-53
2022/02/15 08:54:10;;;;;;;10.07;5.30;;;;;;;4.20;100.00;99675.31;7390045;19;20423;-49
2022/02/15 08:56:42;;;;;;;9.70;5.20;;;;;;;4.22;100.00;99671.16;7392377;19;20451;-49
2022/02/15 08:59:12;;;;;;;12.80;7.23;;;;;;;4.26;100.00;99672.19;7391568;19;20507;-53
2022/02/15 09:01:42;;;;;;;16.57;6.47;;;;;;;4.28;100.00;99674.03;7393945;19;21824;-53
2022/02/15 09:04:16;;;;;;;18.40;8.47;;;;;;;4.33;100.00;99670.00;7393980;19;20488;-49
2022/02/15 09:06:48;;;;;;;18.43;8.03;;;;;;;4.35;100.00;99662.44;7388428;19;20473;-52
2022/02/15 09:09:18;;;;;;;22.73;8.57;;;;;;;4.42;100.00;99659.38;7391517;19;20379;-52
2022/02/15 09:11:51;;;;;;;22.53;9.10;;;;;;;4.47;100.00;99662.16;7388580;19;20379;-55
2022/02/15 09:14:20;;;;;;;21.40;9.20;;;;;;;4.46;100.00;99661.28;7392771;19;20409;-50
2022/02/15 09:16:50;;;;;;;18.60;8.77;;;;;;;4.46;100.00;99657.84;7388787;19;20387;-49
2022/02/15 09:19:19;;;;;;;18.27;9.27;;;;;;;4.55;100.00;99659.97;7391466;19;20398;-50
2022/02/15 09:21:50;;;;;;;16.70;8.03;;;;;;;4.50;100.00;99651.22;7386270;19;20398;-53
2022/02/15 09:24:19;;;;;;;23.30;8.80;;;;;;;4.53;100.00;99659.03;7389516;19;20425;-51
2022/02/15 09:26:52;;;;;;;19.70;7.73;;;;;;;4.56;100.00;99660.03;7389624;19;20932;-51
2022/02/15 09:29:23;;;;;;;25.30;8.80;;;;;;;4.59;100.00;99665.31;7391365;19;20389;-51
2022/02/15 09:31:52;;;;;;;19.10;8.77;;;;;;;4.61;100.00;99667.94;7388367;19;20392;-49
2022/02/15 09:34:23;;;;;;;21.27;8.47;;;;;;;4.62;100.00;99664.59;7389144;19;20943;-50
2022/02/15 09:36:53;;;;;;;79.73;22.13;;;;;;;4.68;100.00;99659.75;7385901;19;20383;-52
2022/02/15 09:39:23;;;;;;;16.90;8.00;;;;;;;4.69;100.00;99668.31;7390550;19;20395;-52
2022/02/15 09:41:55;;;;;;;34.27;11.10;;;;;;;4.75;100.00;99666.03;7390281;19;20471;-51
2022/02/15 09:44:25;;;;;;;37.00;11.63;;;;;;;4.72;100.00;99666.78;7396175;19;20538;-52
2022/02/15 09:46:55;;;;;;;21.83;8.00;;;;;;;4.74;100.00;99674.53;7394942;19;20380;-50
2022/02/15 09:52:09;;;;;;;18.20;5.60;;;;;;;4.84;100.00;99689.50;7394628;19;20401;-52
2022/02/15 09:54:40;;;;;;;17.20;7.83;;;;;;;4.90;100.00;99698.25;7397608;19;20506;-50
2022/02/15 09:57:14;;;;;;;38.50;11.50;;;;;;;4.98;100.00;99707.16;7394951;19;20411;-49
2022/02/15 09:59:46;;;;;;;11.80;5.57;;;;;;;4.93;100.00;99718.84;7398304;19;20391;-48
2022/02/15 10:02:17;;;;;;;16.30;6.70;;;;;;;4.92;100.00;99717.09;7392364;19;20422;-55
2022/02/15 10:04:47;;;;;;;21.03;7.57;;;;;;;4.94;100.00;99725.72;7395207;19;20498;-49
2022/02/15 10:07:16;;;;;;;20.33;6.87;;;;;;;4.97;100.00;99741.22;7394498;19;20416;-51
2022/02/15 10:09:50;;;;;;;14.30;6.37;;;;;;;4.95;100.00;99747.91;7397671;19;20395;-48
2022/02/15 10:12:24;;;;;;;10.87;5.77;;;;;;;4.98;100.00;99768.53;7393432;19;20452;-51
2022/02/15 10:14:55;;;;;;;13.00;6.77;;;;;;;5.04;100.00;99784.16;7397928;19;20415;-49
2022/02/15 10:17:26;;;;;;;9.33;5.33;;;;;;;5.00;100.00;99793.38;7393097;19;20424;-55
2022/02/15 10:19:57;;;;;;;23.00;9.53;;;;;;;5.11;100.00;99795.56;7397380;19;20403;-52
2022/02/15 10:22:27;;;;;;;14.40;7.67;;;;;;;4.94;100.00;99798.19;7391760;19;20417;-53
2022/02/15 10:24:58;;;;;;;10.70;5.57;;;;;;;4.95;100.00;99783.72;7399886;19;20456;-50
2022/02/15 10:27:32;;;;;;;16.03;6.70;;;;;;;4.83;100.00;99794.22;7395291;19;20415;-52
2022/02/15 10:30:03;;;;;;;13.50;6.20;;;;;;;4.79;100.00;99794.84;7397304;19;20481;-54
2022/02/15 10:32:33;;;;;;;8.47;4.87;;;;;;;4.75;100.00;99793.81;7393776;19;20403;-52
2022/02/15 10:35:02;;;;;;;13.13;5.10;;;;;;;4.77;100.00;99788.81;7394578;19;20483;-53
2022/02/15 10:37:33;;;;;;;14.47;6.30;;;;;;;4.73;100.00;99798.84;7394333;19;20424;-51
2022/02/15 10:40:05;;;;;;;10.33;5.17;;;;;;;4.72;100.00;99806.47;7397421;19;20750;-52
2022/02/15 10:42:38;;;;;;;8.93;3.40;;;;;;;4.75;100.00;99805.72;7392115;19;20441;-51
2022/02/15 10:45:10;;;;;;;10.47;4.50;;;;;;;4.85;100.00;99810.50;7394782;19;20416;-53
2022/02/15 10:47:42;;;;;;;24.17;5.17;;;;;;;4.89;100.00;99814.97;7393678;19;20429;-54
2022/02/15 10:50:14;;;;;;;10.70;5.47;;;;;;;4.98;100.00;99823.06;7396636;19;20474;-53
2022/02/15 10:52:44;;;;;;;12.30;4.97;;;;;;;5.11;100.00;99827.13;7394217;19;20473;-52
2022/02/15 10:55:14;;;;;;;16.47;5.80;;;;;;;5.27;100.00;99838.09;7394080;19;20444;-55
2022/02/15 10:57:47;;;;;;;9.57;5.30;;;;;;;5.37;100.00;99849.66;7392195;19;20441;-53
2022/02/15 11:00:18;;;;;;;14.60;6.43;;;;;;;5.44;100.00;99849.13;7396710;19;20407;-49
2022/02/15 11:02:48;;;;;;;12.87;5.70;;;;;;;5.51;100.00;99873.34;7391550;19;20453;-53
2022/02/15 11:05:19;;;;;;;13.47;6.60;;;;;;;5.61;100.00;99880.66;7397047;19;20438;-53
2022/02/15 11:07:49;;;;;;;9.60;4.57;;;;;;;5.69;100.00;99906.59;7392477;19;20490;-50
2022/02/15 11:10:22;;;;;;;8.87;5.13;;;;;;;5.90;100.00;99919.56;7397139;19;21059;-52
2022/02/15 11:12:57;;;;;;;5.77;3.50;;;;;;;5.96;100.00;99947.16;7383674;19;20422;-52
2022/02/15 11:15:27;;;;;;;8.00;3.50;;;;;;;5.92;100.00;99955.47;7393324;19;20427;-51
2022/02/15 11:17:59;;;;;;;9.27;4.73;;;;;;;5.93;100.00;99965.81;7392025;19;20421;-50
2022/02/15 11:20:50;;;;;;;5.73;3.07;;;;;;;5.85;100.00;99991.84;7398639;19;20396;-53
2022/02/15 11:23:21;;;;;;;7.47;3.20;;;;;;;5.81;100.00;100003.63;7389071;19;20413;-52
2022/02/15 11:26:05;;;;;;;8.97;3.93;;;;;;;5.80;100.00;100010.41;7395251;19;20761;-52
2022/02/15 11:28:47;;;;;;;10.27;4.90;;;;;;;6.00;100.00;100015.63;7391566;19;20426;-51
2022/02/15 11:31:29;;;;;;;8.00;4.60;;;;;;;6.02;100.00;100026.88;7395157;19;20394;-50
2022/02/15 11:34:04;;;;;;;11.10;6.00;;;;;;;6.19;100.00;100013.97;7389627;19;20478;-54
2022/02/15 11:36:34;;;;;;;21.90;10.33;;;;;;;6.37;100.00;100019.09;7394333;19;20404;-51
2022/02/15 11:39:08;;;;;;;19.13;10.60;;;;;;;6.46;100.00;100028.91;7390744;19;20419;-52
2022/02/15 11:41:45;;;;;;;13.17;6.50;;;;;;;6.69;100.00;100021.38;7393892;19;20383;-52
2022/02/15 11:44:17;;;;;;;12.63;5.70;;;;;;;6.65;100.00;100038.31;7392490;19;20419;-52
2022/02/15 11:46:48;;;;;;;6.77;4.57;;;;;;;6.75;100.00;100037.06;7390335;19;20402;-52
2022/02/15 11:49:18;;;;;;;7.87;4.40;;;;;;;6.50;100.00;100061.53;7393849;19;20388;-54
2022/02/15 11:51:50;;;;;;;12.90;5.10;;;;;;;6.61;100.00;100054.34;7390672;19;20929;-49
2022/02/15 11:54:21;;;;;;;9.77;4.50;;;;;;;6.52;100.00;100074.44;7392669;19;20404;-52
2022/02/15 11:56:52;;;;;;;8.73;3.37;;;;;;;6.53;100.00;100065.94;7389951;19;20448;-53